createdAt,value
2023-11-30T00:00:40.312Z,-10905128.16
2023-11-30T00:02:22.036Z,-10904800.42
2023-11-30T00:04:03.770Z,-10904762.67
2023-11-30T00:05:45.621Z,-10904718.53
2023-11-30T00:07:27.327Z,-10905165.77
2023-11-30T00:09:09.205Z,-10905087.11
2023-11-30T00:10:50.910Z,-10904636.58
2023-11-30T00:12:32.666Z,-10904800.42
2023-11-30T00:14:14.473Z,-10904797.23
2023-11-30T00:15:56.237Z,-10904756.30
2023-11-30T00:17:38.058Z,-10904885.58
2023-11-30T00:19:19.809Z,-10905043.02
2023-11-30T00:21:01.598Z,-10904674.38
2023-11-30T00:22:43.397Z,-10904636.61
2023-11-30T00:24:25.296Z,-10905042.92
2023-11-30T00:26:06.964Z,-10904636.61
2023-11-30T00:27:48.710Z,-10904677.49
2023-11-30T00:29:30.530Z,-10905128.06
2023-11-30T00:31:12.302Z,-10904964.21
2023-11-30T00:32:54.089Z,-10905124.93
2023-11-30T00:34:35.863Z,-10904926.47
2023-11-30T00:36:17.646Z,-10904926.47
2023-11-30T00:37:59.444Z,-10904964.21
2023-11-30T00:39:41.231Z,-10905009.04
2023-11-30T00:41:23.002Z,-10905128.06
2023-11-30T00:43:04.809Z,-10904759.50
2023-11-30T00:44:46.613Z,-10904592.38
2023-11-30T00:46:28.382Z,-10904960.99
2023-11-30T00:49:51.914Z,-10905165.81
2023-11-30T00:51:33.719Z,-10904967.43
2023-11-30T00:53:15.485Z,-10904722.53
2023-11-30T00:54:57.257Z,-10905005.18
2023-11-30T00:56:39.060Z,-10905131.28
2023-11-30T00:58:20.864Z,-10904886.13
2023-11-30T01:00:02.633Z,-10905001.99
2023-11-30T01:01:44.397Z,-10904923.25
2023-11-30T01:03:26.223Z,-10904640.00
2023-11-30T01:05:07.978Z,-10904920.08
2023-11-30T01:06:49.776Z,-10904551.44
2023-11-30T01:08:31.539Z,-10904558.47
2023-11-30T01:10:13.319Z,-10905046.16
2023-11-30T01:11:55.098Z,-10905049.98
2023-11-30T01:13:36.912Z,-10904639.70
2023-11-30T01:15:18.689Z,-10904595.56
2023-11-30T01:17:00.476Z,-10904592.33
2023-11-30T01:18:42.268Z,-10905172.17
2023-11-30T01:20:24.039Z,-10905049.47
2023-11-30T01:22:05.828Z,-10904599.38
2023-11-30T01:23:47.581Z,-10905001.96
2023-11-30T01:25:29.415Z,-10904926.41
2023-11-30T01:27:11.151Z,-10904721.86
2023-11-30T01:28:52.936Z,-10904598.75
2023-11-30T01:30:34.771Z,-10904598.75
2023-11-30T01:32:16.526Z,-10904558.44
2023-11-30T01:33:58.291Z,-10904968.16
2023-11-30T01:35:40.130Z,-10904762.75
2023-11-30T01:37:21.850Z,-10904722.44
2023-11-30T01:39:03.647Z,-10904598.92
2023-11-30T01:40:45.429Z,-10905132.16
2023-11-30T01:42:27.388Z,-10905132.16
2023-11-30T01:44:08.997Z,-10904640.00
2023-11-30T01:45:50.800Z,-10904927.29
2023-11-30T01:47:32.576Z,-10904681.59
2023-11-30T01:49:14.347Z,-10904674.41
2023-11-30T01:50:56.124Z,-10904762.75
2023-11-30T01:52:37.934Z,-10904804.46
2023-11-30T01:54:19.707Z,-10905090.41
2023-11-30T01:56:01.489Z,-10904804.23
2023-11-30T01:57:43.263Z,-10904923.25
2023-11-30T01:59:25.060Z,-10905131.23
2023-11-30T02:01:06.861Z,-10904886.23
2023-11-30T02:02:48.654Z,-10905002.03
2023-11-30T02:04:30.415Z,-10904551.51
2023-11-30T02:06:12.190Z,-10904680.68
2023-11-30T02:07:54.060Z,-10904599.58
2023-11-30T02:09:35.804Z,-10904804.41
2023-11-30T02:11:17.548Z,-10905008.34
2023-11-30T02:12:59.350Z,-10904845.24
2023-11-30T02:14:41.151Z,-10905091.11
2023-11-30T02:16:22.915Z,-10904845.24
2023-11-30T02:18:04.723Z,-10905042.90
2023-11-30T02:19:46.472Z,-10904845.14
2023-11-30T02:21:28.234Z,-10904803.53
2023-11-30T02:23:10.015Z,-10904968.01
2023-11-30T02:24:51.809Z,-10904886.10
2023-11-30T02:26:33.668Z,-10905009.05
2023-11-30T02:28:15.384Z,-10904844.57
2023-11-30T02:29:57.222Z,-10904797.17
2023-11-30T02:31:38.965Z,-10904557.97
2023-11-30T02:33:20.714Z,-10905172.90
2023-11-30T02:35:02.524Z,-10904967.46
2023-11-30T02:36:44.375Z,-10905008.44
2023-11-30T02:38:26.131Z,-10904636.55
2023-11-30T02:40:07.866Z,-10904879.11
2023-11-30T02:41:49.673Z,-10904639.80
2023-11-30T02:43:31.429Z,-10904920.09
2023-11-30T02:45:13.217Z,-10904882.34
2023-11-30T02:46:55.003Z,-10904681.39
2023-11-30T02:48:36.787Z,-10904968.11
2023-11-30T02:50:18.585Z,-10904845.24
2023-11-30T02:52:00.352Z,-10904557.87
2023-11-30T02:53:42.201Z,-10904721.75
2023-11-30T02:55:23.989Z,-10904885.89
2023-11-30T02:57:05.702Z,-10904557.87
2023-11-30T02:58:47.492Z,-10904681.44
2023-11-30T03:00:29.284Z,-10904926.56
2023-11-30T03:02:11.076Z,-10904681.44
2023-11-30T03:03:52.846Z,-10904639.83
2023-11-30T03:05:34.613Z,-10904636.60
2023-11-30T03:07:16.495Z,-10904968.16
2023-11-30T03:08:58.238Z,-10904800.43
2023-11-30T03:10:39.998Z,-10904968.13
2023-11-30T03:12:21.766Z,-10904636.64
2023-11-30T03:14:03.598Z,-10904961.03
2023-11-30T03:15:45.395Z,-10904636.64
2023-11-30T03:17:27.217Z,-10904762.69
2023-11-30T03:19:08.891Z,-10905008.13
2023-11-30T03:20:50.824Z,-10904595.68
2023-11-30T03:22:32.530Z,-10904636.26
2023-11-30T03:24:14.249Z,-10905124.57
2023-11-30T03:25:56.097Z,-10904961.11
2023-11-30T03:27:37.877Z,-10904715.03
2023-11-30T03:29:19.667Z,-10904796.96
2023-11-30T03:31:01.368Z,-10904755.89
2023-11-30T03:32:43.185Z,-10904759.17
2023-11-30T03:34:25.088Z,-10904756.00
2023-11-30T03:36:06.723Z,-10905001.63
2023-11-30T03:37:48.628Z,-10904841.06
2023-11-30T03:39:30.343Z,-10905124.62
2023-11-30T03:41:12.092Z,-10904964.00
2023-11-30T03:42:54.029Z,-10905001.71
2023-11-30T03:44:35.772Z,-10905004.94
2023-11-30T03:46:17.520Z,-10904636.30
2023-11-30T03:47:59.222Z,-10904636.30
2023-11-30T03:49:41.049Z,-10904837.90
2023-11-30T03:51:22.832Z,-10904796.92
2023-11-30T03:53:04.556Z,-10905165.56
2023-11-30T03:54:46.479Z,-10904636.25
2023-11-30T03:56:28.190Z,-10904755.94
2023-11-30T03:58:10.106Z,-10904800.10
2023-11-30T03:59:51.754Z,-10904844.85
2023-11-30T04:01:33.621Z,-10905168.74
2023-11-30T04:03:15.268Z,-10904674.02
2023-11-30T04:04:57.072Z,-10904882.01
2023-11-30T04:06:38.845Z,-10904554.34
2023-11-30T04:08:20.617Z,-10904837.89
2023-11-30T04:10:02.403Z,-10904636.29
2023-11-30T04:11:44.321Z,-10904837.89
2023-11-30T04:13:25.994Z,-10904837.89
2023-11-30T04:15:07.780Z,-10905083.59
2023-11-30T04:16:49.552Z,-10904595.33
2023-11-30T04:18:31.394Z,-10904800.14
2023-11-30T04:20:13.164Z,-10905124.61
2023-11-30T04:21:55.017Z,-10905168.78
2023-11-30T04:23:36.666Z,-10905001.66
2023-11-30T04:25:18.516Z,-10904755.89
2023-11-30T04:27:00.307Z,-10904762.40
2023-11-30T04:28:42.129Z,-10904885.84
2023-11-30T04:30:23.961Z,-10904595.24
2023-11-30T04:32:05.594Z,-10904714.94
2023-11-30T04:33:47.521Z,-10905131.64
2023-11-30T04:35:29.234Z,-10905049.67
2023-11-30T04:37:10.957Z,-10905045.81
2023-11-30T04:38:52.802Z,-10904963.89
2023-11-30T04:40:34.586Z,-10904837.84
2023-11-30T04:42:16.508Z,-10905168.68
2023-11-30T04:43:58.104Z,-10904639.48
2023-11-30T04:45:40.018Z,-10904967.74
2023-11-30T04:47:21.738Z,-10904636.23
2023-11-30T04:49:03.424Z,-10905165.49
2023-11-30T04:50:45.288Z,-10904837.83
2023-11-30T04:52:27.022Z,-10904800.08
2023-11-30T04:54:08.871Z,-10904885.17
2023-11-30T04:55:50.585Z,-10904919.76
2023-11-30T04:57:32.426Z,-10904837.83
2023-11-30T04:59:14.189Z,-10904800.08
2023-11-30T05:00:56.033Z,-10905004.84
2023-11-30T05:02:37.699Z,-10904554.32
2023-11-30T05:04:19.524Z,-10904800.08
2023-11-30T05:06:01.392Z,-10904800.08
2023-11-30T05:07:43.067Z,-10904633.14
2023-11-30T05:09:24.869Z,-10904844.18
2023-11-30T05:11:06.661Z,-10905127.82
2023-11-30T05:12:48.456Z,-10904837.80
2023-11-30T05:14:30.376Z,-10904919.69
2023-11-30T05:16:12.090Z,-10904598.42
2023-11-30T05:17:53.850Z,-10904633.10
2023-11-30T05:19:35.541Z,-10904598.42
2023-11-30T05:21:17.319Z,-10904841.10
2023-11-30T05:22:59.154Z,-10904722.09
2023-11-30T05:24:40.920Z,-10905168.67
2023-11-30T05:26:22.800Z,-10905008.03
2023-11-30T05:28:04.519Z,-10904721.31
2023-11-30T05:29:46.267Z,-10904885.29
2023-11-30T05:31:28.070Z,-10905131.55
2023-11-30T05:33:09.823Z,-10904639.39
2023-11-30T05:34:51.685Z,-10904762.42
2023-11-30T05:36:33.388Z,-10904837.91
2023-11-30T05:38:15.160Z,-10904837.91
2023-11-30T05:39:56.953Z,-10904803.88
2023-11-30T05:41:38.794Z,-10904878.87
2023-11-30T05:43:20.509Z,-10904554.40
2023-11-30T05:45:02.314Z,-10904926.12
2023-11-30T05:46:44.159Z,-10904885.96
2023-11-30T05:48:25.909Z,-10904558.29
2023-11-30T05:50:07.645Z,-10905008.23
2023-11-30T05:51:49.432Z,-10905172.03
2023-11-30T05:53:31.221Z,-10904967.87
2023-11-30T05:55:13.025Z,-10904595.52
2023-11-30T05:56:54.798Z,-10904680.50
2023-11-30T05:58:36.661Z,-10904844.33
2023-11-30T06:00:18.356Z,-10904640.17
2023-11-30T06:02:00.156Z,-10905046.06
2023-11-30T06:03:41.907Z,-10904926.89
2023-11-30T06:05:23.737Z,-10904967.33
2023-11-30T06:07:05.616Z,-10905008.31
2023-11-30T06:08:47.290Z,-10904800.18
2023-11-30T06:10:29.158Z,-10905046.06
2023-11-30T06:12:10.846Z,-10904599.30
2023-11-30T06:13:52.716Z,-10904974.24
2023-11-30T06:15:34.408Z,-10904995.32
2023-11-30T06:17:16.205Z,-10905068.91
2023-11-30T06:18:57.988Z,-10905148.27
2023-11-30T06:20:39.834Z,-10904669.51
2023-11-30T06:22:21.700Z,-10905143.27
2023-11-30T06:24:03.328Z,-10905144.64
2023-11-30T06:25:45.146Z,-10904611.60
2023-11-30T06:27:26.888Z,-10905171.69
2023-11-30T06:29:08.683Z,-10904969.32
2023-11-30T06:30:50.484Z,-10904578.17
2023-11-30T06:32:32.263Z,-10904586.69
2023-11-30T06:34:14.020Z,-10904900.20
2023-11-30T06:35:55.903Z,-10904718.64
2023-11-30T06:37:37.584Z,-10905075.60
2023-11-30T06:39:19.383Z,-10904656.38
2023-11-30T06:41:01.166Z,-10905014.46
2023-11-30T06:42:42.988Z,-10905149.55
2023-11-30T06:44:24.743Z,-10905056.37
2023-11-30T06:46:06.674Z,-10904699.95
2023-11-30T06:47:48.389Z,-10904757.47
2023-11-30T06:49:30.088Z,-10904989.17
2023-11-30T06:51:11.877Z,-10904667.41
2023-11-30T06:52:53.659Z,-10905017.44
2023-11-30T06:54:35.443Z,-10904725.21
2023-11-30T06:56:17.304Z,-10904752.23
2023-11-30T06:57:59.007Z,-10904549.32
2023-11-30T06:59:40.894Z,-10904788.10
2023-11-30T07:01:22.592Z,-10904598.32
2023-11-30T07:03:04.355Z,-10905005.94
2023-11-30T07:04:46.165Z,-10904973.12
2023-11-30T07:06:27.903Z,-10904772.35
2023-11-30T07:08:09.832Z,-10904603.94
2023-11-30T07:09:51.664Z,-10904906.19
2023-11-30T07:11:33.573Z,-10905125.51
2023-11-30T07:13:15.364Z,-10904608.59
2023-11-30T07:14:57.048Z,-10904902.94
2023-11-30T07:16:38.686Z,-10904547.03
2023-11-30T07:18:20.658Z,-10904847.47
2023-11-30T07:20:02.210Z,-10904747.62
2023-11-30T07:21:44.234Z,-10904928.56
2023-11-30T07:23:25.781Z,-10904919.41
2023-11-30T07:25:07.544Z,-10905174.51
2023-11-30T07:26:49.456Z,-10904616.49
2023-11-30T07:28:31.280Z,-10904889.48
2023-11-30T07:30:12.955Z,-10905176.80
2023-11-30T07:31:54.763Z,-10904617.31
2023-11-30T07:33:36.514Z,-10904559.73
2023-11-30T07:35:18.278Z,-10904857.44
2023-11-30T07:37:00.094Z,-10904691.07
2023-11-30T07:38:41.833Z,-10904766.08
2023-11-30T07:40:23.616Z,-10904903.20
2023-11-30T07:42:05.404Z,-10905028.50
2023-11-30T07:43:47.164Z,-10904949.84
2023-11-30T07:45:29.074Z,-10904939.15
2023-11-30T07:47:10.827Z,-10904765.71
2023-11-30T07:48:52.665Z,-10904727.35
2023-11-30T07:50:34.345Z,-10904536.64
2023-11-30T07:52:16.083Z,-10904631.32
2023-11-30T07:53:58.110Z,-10904622.40
2023-11-30T07:55:39.666Z,-10905184.92
2023-11-30T07:57:21.537Z,-10905113.89
2023-11-30T07:59:03.253Z,-10904763.12
2023-11-30T08:00:45.177Z,-10904865.30
2023-11-30T08:02:26.904Z,-10905154.04
2023-11-30T08:04:08.674Z,-10904738.81
2023-11-30T08:05:50.591Z,-10904893.81
2023-11-30T08:07:32.244Z,-10904804.23
2023-11-30T08:09:14.034Z,-10904783.70
2023-11-30T08:10:55.822Z,-10904893.78
2023-11-30T08:12:37.481Z,-10905134.42
2023-11-30T08:14:19.506Z,-10904612.32
2023-11-30T08:16:01.413Z,-10905131.93
2023-11-30T08:17:42.857Z,-10904910.60
2023-11-30T08:19:24.627Z,-10905053.32
2023-11-30T08:21:06.466Z,-10904746.10
2023-11-30T08:22:48.357Z,-10904954.11
2023-11-30T08:24:30.063Z,-10904683.94
2023-11-30T08:26:11.762Z,-10905082.72
2023-11-30T08:27:53.600Z,-10905023.14
2023-11-30T08:29:35.438Z,-10904649.36
2023-11-30T08:31:17.277Z,-10904878.42
2023-11-30T08:32:59.006Z,-10904893.11
2023-11-30T08:34:40.825Z,-10904837.37
2023-11-30T08:36:22.513Z,-10904669.68
2023-11-30T08:38:04.501Z,-10904565.34
2023-11-30T08:39:46.029Z,-10904982.64
2023-11-30T08:41:27.906Z,-10905061.31
2023-11-30T08:43:09.606Z,-10904997.94
2023-11-30T08:44:51.486Z,-10904678.59
2023-11-30T08:46:33.164Z,-10904772.66
2023-11-30T08:48:15.107Z,-10904848.22
2023-11-30T08:49:56.896Z,-10904892.45
2023-11-30T08:51:38.653Z,-10904707.46
2023-11-30T08:53:20.402Z,-10904761.64
2023-11-30T08:55:02.111Z,-10904983.69
2023-11-30T08:56:43.908Z,-10905059.69
2023-11-30T08:58:25.664Z,-10904975.81
2023-11-30T09:00:07.513Z,-10904777.15
2023-11-30T09:01:49.249Z,-10904676.74
2023-11-30T09:03:31.338Z,-10904999.07
2023-11-30T09:05:12.978Z,-10904945.53
2023-11-30T09:06:54.587Z,-10904672.27
2023-11-30T09:08:36.465Z,-10904647.58
2023-11-30T09:10:18.266Z,-10904566.44
2023-11-30T09:12:00.195Z,-10905027.12
2023-11-30T09:13:41.969Z,-10905037.49
2023-11-30T09:15:23.573Z,-10904850.63
2023-11-30T09:17:05.329Z,-10904768.79
2023-11-30T09:18:47.420Z,-10904548.35
2023-11-30T09:20:28.834Z,-10905071.51
2023-11-30T09:22:10.801Z,-10904792.43
2023-11-30T09:23:52.403Z,-10904745.69
2023-11-30T09:25:34.184Z,-10904694.55
2023-11-30T09:27:16.048Z,-10904930.70
2023-11-30T09:28:57.954Z,-10904750.84
2023-11-30T09:30:39.611Z,-10904773.88
2023-11-30T09:32:21.325Z,-10904739.83
2023-11-30T09:34:03.314Z,-10905160.92
2023-11-30T09:35:44.977Z,-10905055.30
2023-11-30T09:37:26.728Z,-10904790.33
2023-11-30T09:39:08.474Z,-10904991.46
2023-11-30T09:40:50.396Z,-10904610.03
2023-11-30T09:42:32.158Z,-10904823.14
2023-11-30T09:44:13.802Z,-10904840.31
2023-11-30T09:45:55.927Z,-10905116.10
2023-11-30T09:47:37.383Z,-10905047.68
2023-11-30T09:49:19.398Z,-10904799.48
2023-11-30T09:51:01.006Z,-10904980.11
2023-11-30T09:52:42.909Z,-10904652.46
2023-11-30T09:54:24.709Z,-10904622.71
2023-11-30T09:56:06.460Z,-10904994.40
2023-11-30T09:57:48.274Z,-10905120.95
2023-11-30T09:59:29.871Z,-10904957.12
2023-11-30T10:01:11.872Z,-10904972.99
2023-11-30T10:02:53.439Z,-10904937.14
2023-11-30T10:04:35.355Z,-10904923.69
2023-11-30T10:06:17.005Z,-10904647.87
2023-11-30T10:07:58.802Z,-10905055.56
2023-11-30T10:09:40.604Z,-10905101.09
2023-11-30T10:11:22.478Z,-10904928.95
2023-11-30T10:13:04.272Z,-10905014.02
2023-11-30T10:14:46.095Z,-10904850.19
2023-11-30T10:16:27.701Z,-10904566.03
2023-11-30T10:18:09.487Z,-10905109.38
2023-11-30T10:19:51.326Z,-10904619.15
2023-11-30T10:21:33.053Z,-10904683.18
2023-11-30T10:23:15.050Z,-10904932.14
2023-11-30T10:24:56.619Z,-10904603.78
2023-11-30T10:26:38.560Z,-10904862.30
2023-11-30T10:28:20.196Z,-10904836.70
2023-11-30T10:30:01.977Z,-10904735.57
2023-11-30T10:31:43.985Z,-10904668.26
2023-11-30T10:33:25.549Z,-10904923.64
2023-11-30T10:35:07.349Z,-10904926.74
2023-11-30T10:36:49.333Z,-10905085.49
2023-11-30T10:38:31.011Z,-10904914.59
2023-11-30T10:40:12.748Z,-10905108.64
2023-11-30T10:41:54.457Z,-10905101.60
2023-11-30T10:43:36.583Z,-10904905.76
2023-11-30T10:45:18.136Z,-10904955.61
2023-11-30T10:46:59.835Z,-10905055.98
2023-11-30T10:48:41.743Z,-10904864.59
2023-11-30T10:50:23.414Z,-10904698.05
2023-11-30T10:52:05.177Z,-10905078.95
2023-11-30T10:53:47.012Z,-10904552.62
2023-11-30T10:55:28.815Z,-10904559.78
2023-11-30T10:57:10.525Z,-10905169.08
2023-11-30T10:58:52.360Z,-10904670.34
2023-11-30T11:00:34.207Z,-10904867.27
2023-11-30T11:02:15.880Z,-10904961.78
2023-11-30T11:03:57.688Z,-10904676.99
2023-11-30T11:05:39.552Z,-10905032.74
2023-11-30T11:07:21.486Z,-10904920.77
2023-11-30T11:09:03.006Z,-10904864.52
2023-11-30T11:10:44.804Z,-10904748.70
2023-11-30T11:12:26.580Z,-10904956.03
2023-11-30T11:14:08.482Z,-10904697.50
2023-11-30T11:15:50.143Z,-10904861.30
2023-11-30T11:17:32.017Z,-10904767.25
2023-11-30T11:19:13.720Z,-10904544.63
2023-11-30T11:20:55.767Z,-10905181.39
2023-11-30T11:22:37.421Z,-10904761.85
2023-11-30T11:24:19.286Z,-10904845.08
2023-11-30T11:26:01.031Z,-10904948.83
2023-11-30T11:27:42.862Z,-10905002.64
2023-11-30T11:29:24.618Z,-10904633.32
2023-11-30T11:31:06.284Z,-10905120.57
2023-11-30T11:32:48.012Z,-10905137.15
2023-11-30T11:34:29.910Z,-10904678.18
2023-11-30T11:36:11.569Z,-10904801.89
2023-11-30T11:37:53.411Z,-10904771.18
2023-11-30T11:39:35.241Z,-10904865.88
2023-11-30T11:41:17.038Z,-10905157.75
2023-11-30T11:42:58.998Z,-10905134.67
2023-11-30T11:44:40.665Z,-10904904.36
2023-11-30T11:46:22.481Z,-10904664.43
2023-11-30T11:48:04.229Z,-10904759.11
2023-11-30T11:49:46.026Z,-10904546.57
2023-11-30T11:51:27.869Z,-10905127.83
2023-11-30T11:53:09.666Z,-10904634.86
2023-11-30T11:54:51.317Z,-10904924.75
2023-11-30T11:56:33.119Z,-10905093.30
2023-11-30T11:58:14.989Z,-10905068.72
2023-11-30T11:59:56.731Z,-10904911.41
2023-11-30T12:01:38.332Z,-10904952.10
2023-11-30T12:03:20.087Z,-10904719.81
2023-11-30T12:05:01.935Z,-10904907.24
2023-11-30T12:06:43.771Z,-10904732.24
2023-11-30T12:08:25.763Z,-10904612.44
2023-11-30T12:10:07.467Z,-10905059.18
2023-11-30T12:11:49.197Z,-10905052.87
2023-11-30T12:15:12.723Z,-10904578.58
2023-11-30T12:33:09.938Z,267.30
2023-11-30T12:34:41.783Z,86.32
2023-11-30T12:36:07.030Z,179.17
2023-11-30T12:37:31.071Z,384.55
2023-11-30T12:38:51.312Z,338.54
2023-11-30T12:40:15.968Z,254.57
2023-11-30T12:41:36.097Z,314.12
2023-11-30T12:43:01.242Z,438.86
2023-11-30T12:44:25.296Z,138.12
2023-11-30T12:45:45.244Z,230.23
2023-11-30T12:47:10.188Z,24.97
2023-11-30T12:48:30.325Z,284.10
2023-11-30T12:49:55.357Z,550.97
2023-11-30T12:51:19.402Z,161.68
2023-11-30T12:52:39.494Z,177.61
2023-11-30T12:54:04.292Z,32.96
2023-11-30T12:55:24.416Z,502.11
2023-11-30T12:56:49.600Z,198.14
2023-11-30T12:58:13.617Z,553.97
2023-11-30T12:59:49.623Z,102.98
2023-11-30T13:01:13.455Z,506.14
2023-11-30T13:02:33.712Z,368.40
2023-11-30T13:03:58.411Z,278.72
2023-11-30T13:05:18.392Z,461.26
2023-11-30T13:06:43.563Z,134.36
2023-11-30T13:08:07.443Z,354.52
2023-11-30T13:09:27.904Z,315.68
2023-11-30T13:10:52.332Z,209.02
2023-11-30T13:12:12.482Z,444.53
2023-11-30T13:13:37.520Z,298.48
2023-11-30T13:15:01.508Z,92.33
2023-11-30T13:16:21.896Z,11.56
2023-11-30T13:17:46.734Z,86.78
2023-11-30T13:19:06.728Z,512.94
2023-11-30T13:20:31.891Z,272.37
2023-11-30T13:21:55.781Z,338.37
2023-11-30T13:23:16.188Z,543.97
2023-11-30T13:24:40.866Z,451.20
2023-11-30T13:26:18.154Z,54.25
2023-11-30T13:27:40.939Z,423.11
2023-11-30T13:29:00.930Z,8.36
2023-11-30T13:30:26.099Z,322.47
2023-11-30T13:31:50.179Z,183.10
2023-11-30T13:33:10.221Z,526.12
2023-11-30T13:34:35.069Z,382.21
2023-11-30T13:35:55.117Z,389.91
2023-11-30T13:37:20.182Z,115.19
2023-11-30T13:38:44.283Z,408.68
2023-11-30T13:40:04.474Z,173.17
2023-11-30T13:41:29.252Z,126.26
2023-11-30T13:42:49.228Z,397.87
2023-11-30T13:44:14.397Z,579.39
2023-11-30T13:45:38.570Z,137.13
2023-11-30T13:46:58.634Z,189.13
2023-11-30T13:48:23.365Z,437.47
2023-11-30T13:49:43.614Z,550.19
2023-11-30T13:51:08.338Z,205.00
2023-11-30T13:52:32.655Z,531.30
2023-11-30T13:54:08.700Z,557.56
2023-11-30T13:55:32.654Z,629.88
2023-11-30T13:56:52.794Z,293.03
2023-11-30T13:58:17.551Z,233.00
2023-11-30T13:59:37.520Z,78.73
2023-11-30T14:01:02.865Z,330.36
2023-11-30T14:02:26.754Z,352.69
2023-11-30T14:03:46.884Z,480.78
2023-11-30T14:05:11.755Z,381.59
2023-11-30T14:06:31.917Z,218.93
2023-11-30T14:07:56.936Z,328.97
2023-11-30T14:09:20.929Z,332.41
2023-11-30T14:10:41.096Z,79.55
2023-11-30T14:12:05.957Z,548.25
2023-11-30T14:13:26.124Z,611.64
2023-11-30T14:14:51.152Z,614.76
2023-11-30T14:16:14.981Z,245.50
2023-11-30T14:17:35.310Z,599.60
2023-11-30T14:18:59.977Z,55.60
2023-11-30T14:20:31.971Z,378.73
2023-11-30T14:21:52.049Z,184.90
2023-11-30T14:23:17.090Z,338.91
2023-11-30T14:24:41.128Z,598.91
2023-11-30T14:26:01.206Z,419.86
2023-11-30T14:27:25.744Z,227.82
2023-11-30T14:28:46.278Z,239.10
2023-11-30T14:30:11.327Z,373.88
2023-11-30T14:31:35.338Z,556.60
2023-11-30T14:32:55.431Z,632.98
2023-11-30T14:34:20.225Z,271.20
2023-11-30T14:35:40.342Z,529.90
2023-11-30T14:37:05.406Z,317.80
2023-11-30T14:38:29.394Z,644.47
2023-11-30T14:39:49.521Z,581.69
2023-11-30T14:41:14.406Z,30.55
2023-11-30T14:42:34.521Z,160.41
2023-11-30T14:43:59.563Z,188.13
2023-11-30T14:45:23.538Z,10.75
2023-11-30T14:46:59.533Z,147.61
2023-11-30T14:48:23.569Z,202.11
2023-11-30T14:49:43.685Z,525.00
2023-11-30T14:51:08.493Z,603.48
2023-11-30T14:52:28.653Z,209.78
2023-11-30T14:53:53.650Z,598.72
2023-11-30T14:55:17.716Z,546.42
2023-11-30T14:56:37.921Z,363.83
2023-11-30T14:58:02.746Z,172.30
2023-11-30T14:59:22.824Z,366.90
2023-11-30T15:00:47.867Z,313.94
2023-11-30T15:02:11.884Z,43.94
2023-11-30T15:03:32.113Z,44.55
2023-11-30T15:04:56.862Z,204.12
2023-11-30T15:06:17.022Z,278.43
2023-11-30T15:07:41.939Z,65.13
2023-11-30T15:09:06.028Z,150.98
2023-11-30T15:10:25.947Z,339.55
2023-11-30T15:11:51.013Z,151.75
2023-11-30T15:13:22.807Z,256.20
2023-11-30T15:14:43.012Z,36.64
2023-11-30T15:16:07.988Z,398.05
2023-11-30T15:17:32.049Z,571.68
2023-11-30T15:18:52.292Z,308.07
2023-11-30T15:20:16.996Z,650.37
2023-11-30T15:21:36.865Z,595.24
2023-11-30T15:23:02.165Z,270.34
2023-11-30T15:24:26.198Z,346.89
2023-11-30T15:25:46.346Z,244.47
2023-11-30T15:27:11.100Z,234.22
2023-11-30T15:28:31.194Z,346.60
2023-11-30T15:29:56.287Z,324.16
2023-11-30T15:31:20.050Z,443.92
2023-11-30T15:32:40.564Z,170.03
2023-11-30T15:34:05.309Z,651.92
2023-11-30T15:35:25.469Z,303.12
2023-11-30T15:36:50.491Z,223.20
2023-11-30T15:38:14.245Z,106.75
2023-11-30T15:39:50.531Z,106.80
2023-11-30T15:41:14.471Z,226.32
2023-11-30T15:42:34.636Z,513.13
2023-11-30T15:43:59.516Z,24.81
2023-11-30T15:45:19.580Z,62.41
2023-11-30T15:46:44.480Z,21.66
2023-11-30T15:48:08.692Z,352.38
2023-11-30T15:49:28.810Z,103.37
2023-11-30T15:50:53.511Z,144.32
2023-11-30T15:52:13.650Z,270.43
2023-11-30T15:53:38.815Z,553.94
2023-11-30T15:55:02.667Z,65.62
2023-11-30T15:56:22.751Z,393.32
2023-11-30T15:57:47.788Z,431.10
2023-11-30T15:59:07.903Z,553.99
2023-11-30T16:00:32.883Z,106.63
2023-11-30T16:01:56.836Z,557.26
2023-11-30T16:03:17.191Z,598.08
2023-11-30T16:04:41.980Z,390.10
2023-11-30T16:06:13.815Z,188.58
2023-11-30T16:07:34.024Z,390.20
2023-11-30T16:08:59.051Z,147.64
2023-11-30T16:10:22.725Z,516.28
2023-11-30T16:11:43.144Z,308.22
2023-11-30T16:13:07.971Z,267.35
2023-11-30T16:14:28.092Z,431.12
2023-11-30T16:15:52.982Z,639.19
2023-11-30T16:17:17.160Z,103.50
2023-11-30T16:18:37.366Z,594.96
2023-11-30T16:20:01.835Z,308.27
2023-11-30T16:21:22.002Z,188.59
2023-11-30T16:22:47.290Z,349.23
2023-11-30T16:24:11.370Z,431.34
2023-11-30T16:25:31.523Z,595.00
2023-11-30T16:26:56.168Z,557.27
2023-11-30T16:28:16.395Z,431.34
2023-11-30T16:29:41.458Z,639.18
2023-11-30T16:31:05.633Z,431.35
2023-11-30T16:32:47.102Z,229.74
2023-11-30T16:34:12.219Z,103.61
2023-11-30T16:35:36.164Z,229.75
2023-11-30T16:36:56.023Z,557.40
2023-11-30T16:38:20.856Z,267.47
2023-11-30T16:39:41.077Z,352.58
2023-11-30T16:41:06.029Z,472.31
2023-11-30T16:42:30.120Z,229.74
2023-11-30T16:43:50.400Z,390.38
2023-11-30T16:45:15.271Z,21.74
2023-11-30T16:46:35.423Z,557.40
2023-11-30T16:48:00.572Z,349.40
2023-11-30T16:49:24.508Z,304.48
2023-11-30T16:50:44.612Z,513.25
2023-11-30T16:52:09.540Z,352.53
2023-11-30T16:53:29.612Z,475.42
2023-11-30T16:54:54.558Z,636.04
2023-11-30T16:56:18.639Z,390.35
2023-11-30T16:58:05.573Z,513.19
2023-11-30T16:59:30.693Z,188.67
2023-11-30T17:00:54.896Z,21.60
2023-11-30T17:02:15.069Z,632.88
2023-11-30T17:03:39.825Z,636.05
2023-11-30T17:04:59.863Z,144.50
2023-11-30T17:06:25.072Z,554.08
2023-11-30T17:07:49.024Z,598.24
2023-11-30T17:09:09.005Z,144.54
2023-11-30T17:10:33.909Z,472.01
2023-11-30T17:11:53.937Z,475.26
2023-11-30T17:13:18.912Z,58.60
2023-11-30T17:14:43.190Z,106.62
2023-11-30T17:16:03.081Z,147.52
2023-11-30T17:17:28.235Z,270.43
2023-11-30T17:18:48.162Z,598.13
2023-11-30T17:20:13.076Z,270.43
2023-11-30T17:21:37.413Z,100.24
2023-11-30T17:22:57.482Z,65.71
2023-11-30T17:24:37.338Z,434.25
2023-11-30T17:25:57.510Z,554.07
2023-11-30T17:27:22.125Z,434.25
2023-11-30T17:28:42.506Z,304.33
2023-11-30T17:30:07.557Z,386.88
2023-11-30T17:31:31.541Z,352.33
2023-11-30T17:32:51.706Z,431.06
2023-11-30T17:34:16.234Z,431.06
2023-11-30T17:35:36.593Z,226.31
2023-11-30T17:37:01.678Z,226.31
2023-11-30T17:38:25.783Z,393.35
2023-11-30T17:39:45.583Z,65.65
2023-11-30T17:41:10.359Z,639.07
2023-11-30T17:42:30.823Z,352.32
2023-11-30T17:43:55.848Z,106.68
2023-11-30T17:45:19.810Z,62.47
2023-11-30T17:46:39.780Z,349.15
2023-11-30T17:48:04.785Z,106.59
2023-11-30T17:49:24.776Z,21.49
2023-11-30T17:50:50.038Z,393.30
2023-11-30T17:52:14.032Z,550.74
2023-11-30T17:54:00.926Z,184.98
2023-11-30T17:55:26.381Z,229.15
2023-11-30T17:56:50.269Z,550.43
2023-11-30T17:58:10.356Z,594.57
2023-11-30T17:59:35.378Z,229.27
2023-11-30T18:00:55.065Z,348.84
2023-11-30T18:02:20.368Z,106.28